createdAt,value
2023-02-02T12:58:02.685Z,92
2023-02-02T12:58:24.560Z,92
2023-02-02T13:08:08.519Z,91
2023-02-02T13:18:09.123Z,91
2023-02-02T13:28:10.132Z,95
2023-02-02T13:38:10.514Z,95
2023-02-02T13:48:11.153Z,95
2023-02-02T13:58:11.654Z,94
2023-02-02T14:08:11.943Z,94
2023-02-02T14:18:12.935Z,94
2023-02-02T14:28:13.578Z,93
2023-02-02T14:38:13.910Z,93
2023-02-02T14:48:14.678Z,93
2023-02-02T14:58:14.954Z,92
2023-02-02T15:08:15.381Z,92
2023-02-02T15:18:16.212Z,92
2023-02-02T15:28:16.404Z,92
2023-02-02T15:38:17.245Z,91
2023-02-02T15:48:18.180Z,91
2023-02-02T15:58:18.325Z,91
2023-02-02T16:08:18.868Z,91
2023-02-02T16:18:19.077Z,91
2023-02-02T16:28:20.119Z,91
2023-02-02T16:38:20.561Z,90
2023-02-02T16:48:21.010Z,90
2023-02-02T16:58:21.960Z,90
2023-02-02T17:08:22.515Z,90
2023-02-02T17:18:22.829Z,90
2023-02-02T17:28:22.951Z,90
2023-02-02T17:38:24.104Z,90
2023-02-02T17:48:24.913Z,89
2023-02-02T17:58:25.566Z,89
2023-02-02T18:08:26.400Z,89
2023-02-02T18:18:27.370Z,89
2023-02-02T18:28:27.678Z,89
2023-02-02T18:38:27.935Z,89
2023-02-02T18:48:28.743Z,89
2023-02-02T18:58:29.288Z,89
2023-02-02T19:08:29.576Z,89
2023-02-02T19:18:30.009Z,88
2023-02-02T19:28:30.930Z,88
2023-02-02T19:38:31.503Z,88
2023-02-02T19:48:32.559Z,88
2023-02-02T19:58:33.520Z,88
2023-02-02T20:08:34.070Z,88
2023-02-02T20:18:34.316Z,88
2023-02-02T20:28:34.536Z,88
2023-02-02T20:38:35.128Z,88
2023-02-02T20:48:35.866Z,88
2023-02-02T20:58:36.162Z,88
2023-02-02T21:08:36.660Z,88
2023-02-02T21:18:36.855Z,87
2023-02-02T21:28:36.949Z,87
2023-02-02T21:38:37.949Z,87
2023-02-02T21:48:38.276Z,87
2023-02-02T21:58:38.655Z,87
2023-02-02T22:08:39.696Z,87
2023-02-02T22:18:40.433Z,87
2023-02-02T22:28:40.861Z,87
2023-02-02T22:38:41.385Z,87
2023-02-02T22:48:41.647Z,87
2023-02-02T22:58:41.930Z,87
2023-02-02T23:08:42.462Z,87
2023-02-02T23:18:43.051Z,87
2023-02-02T23:28:43.107Z,87
2023-02-02T23:38:43.577Z,87
2023-02-02T23:48:44.284Z,87
2023-02-02T23:58:44.663Z,87
